Terminal Aerodrome Forecast
Issued by NWS

Home | Current Version | Previous Version | Text Only | Print | Product List | Glossary On
Versions: 1 2 3 4 5 6 7 8 9 10 11 12 13
000
FTUS46 KOTX 200537
TAFPUW
TAF
KPUW 200537Z 2006/2106 14011KT P6SM BKN120 OVC200
     FM200700 15011KT P6SM -RA BKN050 OVC100
     FM200900 15013KT 6SM -RA BR OVC030
     FM201400 14011KT 5SM RA BR OVC012
     FM202200 24015G22KT P6SM SCT030 BKN200
     FM210200 24010KT P6SM FEW030 BKN200=

USA.gov is the U.S. government's official web portal to all federal, state and local government web resources and services.